Time;durP1;ratioP1;P1;durP2;ratioP2;P2;SDS_P1;SDS_P2;PMS_P1;PMS_P2;Temp;Humidity;BMP_temperature;BMP_pressure;BME280_temperature;BME280_humidity;BME280_pressure;Samples;Min_cycle;Max_cycle;Signal;HPM_P1;HPM_P2
2022/04/25 00:01:18;;;;;;;13.45;3.67;;;;;;;;;;4914389;29;20047;-71
2022/04/25 00:03:44;;;;;;;18.67;3.30;;;;;;;;;;4894382;29;20036;-71
2022/04/25 00:06:13;;;;;;;15.55;3.45;;;;;;;;;;4913154;29;20119;-71
2022/04/25 00:08:39;;;;;;;14.20;3.30;;;;;;;;;;4912327;29;20028;-70
2022/04/25 00:11:07;;;;;;;16.00;4.00;;;;;;;;;;4900003;29;20040;-71
2022/04/25 00:13:34;;;;;;;13.52;3.17;;;;;;;;;;4892742;29;20050;-71
2022/04/25 00:16:00;;;;;;;11.63;3.30;;;;;;;;;;4892738;29;20028;-71
2022/04/25 00:18:26;;;;;;;10.40;3.33;;;;;;;;;;4893980;29;20009;-74
2022/04/25 00:20:52;;;;;;;11.63;3.15;;;;;;;;;;4895269;29;20060;-72
2022/04/25 00:23:18;;;;;;;11.52;3.20;;;;;;;;;;4892453;29;20032;-70
2022/04/25 00:25:45;;;;;;;12.43;3.33;;;;;;;;;;4895359;29;20036;-73
2022/04/25 00:28:11;;;;;;;13.80;3.53;;;;;;;;;;4915165;29;20029;-70
2022/04/25 00:30:37;;;;;;;9.77;3.17;;;;;;;;;;4912152;29;20024;-70
2022/04/25 00:33:03;;;;;;;14.18;3.33;;;;;;;;;;4893351;29;20040;-71
2022/04/25 00:35:29;;;;;;;11.27;3.17;;;;;;;;;;4892602;29;20040;-70
2022/04/25 00:37:55;;;;;;;9.98;3.05;;;;;;;;;;4891522;29;20060;-76
2022/04/25 00:40:22;;;;;;;11.93;3.28;;;;;;;;;;4890334;29;20468;-70
2022/04/25 00:42:49;;;;;;;11.57;3.08;;;;;;;;;;4908662;29;20033;-70
2022/04/25 00:45:18;;;;;;;13.45;3.20;;;;;;;;;;4912033;29;20051;-70
2022/04/25 00:47:44;;;;;;;8.82;3.17;;;;;;;;;;4913684;29;20021;-70
2022/04/25 00:50:11;;;;;;;13.88;3.22;;;;;;;;;;4910083;29;20017;-70
2022/04/25 00:52:39;;;;;;;8.85;2.38;;;;;;;;;;4914670;29;20079;-70
2022/04/25 00:55:07;;;;;;;11.30;3.40;;;;;;;;;;4911548;29;20021;-71
2022/04/25 00:57:34;;;;;;;12.65;3.20;;;;;;;;;;4909795;29;20033;-71
2022/04/25 01:00:05;;;;;;;14.93;3.30;;;;;;;;;;4911131;29;20020;-71
2022/04/25 01:02:31;;;;;;;13.98;3.35;;;;;;;;;;4893947;29;20498;-71
2022/04/25 01:04:58;;;;;;;13.07;3.22;;;;;;;;;;4912958;29;20029;-70
2022/04/25 01:07:26;;;;;;;14.15;3.20;;;;;;;;;;4909758;29;20029;-71
2022/04/25 01:09:52;;;;;;;11.02;3.08;;;;;;;;;;4910409;29;20025;-71
2022/04/25 01:12:18;;;;;;;15.60;3.30;;;;;;;;;;4911667;29;20037;-70
2022/04/25 01:14:44;;;;;;;14.35;3.35;;;;;;;;;;4911668;29;20052;-70
2022/04/25 01:17:13;;;;;;;10.38;3.15;;;;;;;;;;4911158;29;20060;-71
2022/04/25 01:19:39;;;;;;;13.98;3.53;;;;;;;;;;4906627;29;20069;-71
2022/04/25 01:22:11;;;;;;;10.25;2.97;;;;;;;;;;4909354;29;20028;-71
2022/04/25 01:27:22;;;;;;;12.93;3.10;;;;;;;;;;4913914;29;20084;-72
2022/04/25 01:29:49;;;;;;;13.82;3.20;;;;;;;;;;4910715;29;20012;-71
2022/04/25 01:32:16;;;;;;;16.65;3.70;;;;;;;;;;4911218;29;20024;-71
2022/04/25 01:34:42;;;;;;;14.10;3.88;;;;;;;;;;4911674;29;20032;-71
2022/04/25 01:37:09;;;;;;;9.68;3.45;;;;;;;;;;4911235;29;20032;-75
2022/04/25 01:39:37;;;;;;;13.18;3.63;;;;;;;;;;4912592;29;20467;-73
2022/04/25 01:42:03;;;;;;;11.32;3.33;;;;;;;;;;4911719;29;20032;-71
2022/04/25 01:44:29;;;;;;;11.50;3.33;;;;;;;;;;4912014;29;20033;-70
2022/04/25 01:46:56;;;;;;;13.77;3.47;;;;;;;;;;4910082;29;20017;-71
2022/04/25 01:49:22;;;;;;;11.65;3.63;;;;;;;;;;4908652;29;20037;-71
2022/04/25 01:51:48;;;;;;;14.73;4.43;;;;;;;;;;4912095;29;20108;-71
2022/04/25 01:54:14;;;;;;;13.05;4.43;;;;;;;;;;4911938;29;20451;-71
2022/04/25 01:56:41;;;;;;;19.52;4.60;;;;;;;;;;4912279;29;20020;-70
2022/04/25 01:59:09;;;;;;;15.07;4.50;;;;;;;;;;4909226;29;20077;-71
2022/04/25 02:01:35;;;;;;;15.95;4.32;;;;;;;;;;4908685;29;20024;-71
2022/04/25 02:04:01;;;;;;;13.25;4.00;;;;;;;;;;4910489;29;20032;-70
2022/04/25 02:06:29;;;;;;;14.27;4.00;;;;;;;;;;4911595;29;20483;-71
2022/04/25 02:08:55;;;;;;;15.65;4.30;;;;;;;;;;4906914;29;20036;-71
2022/04/25 02:11:24;;;;;;;15.82;3.78;;;;;;;;;;4910134;29;20033;-71
2022/04/25 02:13:51;;;;;;;12.98;3.40;;;;;;;;;;4894716;29;20372;-71
2022/04/25 02:16:18;;;;;;;18.70;4.95;;;;;;;;;;4911099;29;20027;-72
2022/04/25 02:18:44;;;;;;;20.63;6.40;;;;;;;;;;4912167;29;20077;-71
2022/04/25 02:21:10;;;;;;;11.65;4.05;;;;;;;;;;4908316;29;20049;-71
2022/04/25 02:23:37;;;;;;;14.25;4.28;;;;;;;;;;4910589;29;20036;-71
2022/04/25 02:26:04;;;;;;;15.30;4.43;;;;;;;;;;4911278;29;20021;-72
2022/04/25 02:28:30;;;;;;;16.77;5.07;;;;;;;;;;4909162;29;20025;-70
2022/04/25 02:30:57;;;;;;;18.10;4.30;;;;;;;;;;4910132;29;20103;-73
2022/04/25 02:33:24;;;;;;;12.98;4.25;;;;;;;;;;4908965;29;20013;-71
2022/04/25 02:35:50;;;;;;;12.80;3.95;;;;;;;;;;4916228;29;20048;-71
2022/04/25 02:38:16;;;;;;;23.63;5.40;;;;;;;;;;4911256;29;20032;-71
2022/04/25 02:40:42;;;;;;;18.70;4.38;;;;;;;;;;4931360;29;20031;-72
2022/04/25 02:43:08;;;;;;;17.98;4.22;;;;;;;;;;4915125;29;20079;-71
2022/04/25 02:45:35;;;;;;;16.13;4.68;;;;;;;;;;4931663;29;20020;-71
2022/04/25 02:48:01;;;;;;;16.65;4.78;;;;;;;;;;4930047;29;20233;-71
2022/04/25 02:50:27;;;;;;;11.23;4.80;;;;;;;;;;4923356;29;20020;-71
2022/04/25 02:52:54;;;;;;;15.82;5.00;;;;;;;;;;4909296;29;20068;-70
2022/04/25 02:55:23;;;;;;;17.50;5.57;;;;;;;;;;4912020;29;20043;-72
2022/04/25 02:57:49;;;;;;;21.45;6.88;;;;;;;;;;4913075;29;20032;-71
2022/04/25 03:00:15;;;;;;;19.83;6.35;;;;;;;;;;4912885;29;20021;-72
2022/04/25 03:02:41;;;;;;;17.55;6.22;;;;;;;;;;4913254;29;20040;-73
2022/04/25 03:05:07;;;;;;;15.13;6.13;;;;;;;;;;4914502;29;20033;-75
2022/04/25 03:07:33;;;;;;;15.65;5.15;;;;;;;;;;4915396;29;20021;-71
2022/04/25 03:10:00;;;;;;;12.95;5.15;;;;;;;;;;4914500;29;20028;-71
2022/04/25 03:12:26;;;;;;;16.52;5.35;;;;;;;;;;4914224;29;20019;-70
2022/04/25 03:14:52;;;;;;;10.98;3.90;;;;;;;;;;4913261;29;20088;-71
2022/04/25 03:17:18;;;;;;;10.77;3.90;;;;;;;;;;4913534;29;20129;-70
2022/04/25 03:19:44;;;;;;;12.55;4.20;;;;;;;;;;4913917;29;20112;-71
2022/04/25 03:22:10;;;;;;;13.95;4.32;;;;;;;;;;4911529;29;20483;-71
2022/04/25 03:24:39;;;;;;;16.20;4.70;;;;;;;;;;4915957;29;20379;-71
2022/04/25 03:27:07;;;;;;;11.18;4.43;;;;;;;;;;4915624;29;20435;-71
2022/04/25 03:29:33;;;;;;;15.23;4.72;;;;;;;;;;4911821;29;20101;-71
2022/04/25 03:31:59;;;;;;;12.43;4.30;;;;;;;;;;4917013;29;20005;-71
2022/04/25 03:34:25;;;;;;;13.05;4.47;;;;;;;;;;4912997;29;20009;-71
2022/04/25 03:36:54;;;;;;;18.30;4.60;;;;;;;;;;4915789;29;20036;-71
2022/04/25 03:39:20;;;;;;;11.55;4.10;;;;;;;;;;4911061;29;20483;-71
2022/04/25 03:41:47;;;;;;;11.90;4.15;;;;;;;;;;4910805;29;20478;-71
2022/04/25 03:44:14;;;;;;;10.65;4.22;;;;;;;;;;4913231;29;20115;-72
2022/04/25 03:46:40;;;;;;;11.85;3.80;;;;;;;;;;4911598;29;20474;-71
2022/04/25 03:49:06;;;;;;;9.45;4.03;;;;;;;;;;4912058;29;20037;-71
2022/04/25 03:51:32;;;;;;;9.38;3.80;;;;;;;;;;4912191;29;20040;-71
2022/04/25 03:53:59;;;;;;;10.95;3.90;;;;;;;;;;4915444;29;20033;-71
2022/04/25 03:59:13;;;;;;;11.10;3.80;;;;;;;;;;4893680;29;20040;-71
2022/04/25 04:01:39;;;;;;;12.68;4.05;;;;;;;;;;4894125;29;20009;-71
2022/04/25 04:04:05;;;;;;;11.93;4.45;;;;;;;;;;4895869;29;20037;-72
2022/04/25 04:06:37;;;;;;;10.98;4.10;;;;;;;;;;4890097;29;20100;-71
2022/04/25 04:09:44;;;;;;;9.77;4.40;;;;;;;;;;4893259;29;20471;-70
2022/04/25 04:11:49;;;;;;;8.35;3.83;;;;;;;;;;4894035;29;20033;-71
2022/04/25 04:14:15;;;;;;;12.10;4.25;;;;;;;;;;4897391;29;20123;-73
2022/04/25 04:16:42;;;;;;;13.02;4.00;;;;;;;;;;4911593;29;20051;-71
2022/04/25 04:19:08;;;;;;;11.77;4.05;;;;;;;;;;4910432;29;20053;-73
2022/04/25 04:21:36;;;;;;;10.43;4.53;;;;;;;;;;4913558;29;20040;-71
2022/04/25 04:24:03;;;;;;;10.40;4.40;;;;;;;;;;4912101;29;20101;-71
2022/04/25 04:26:29;;;;;;;10.13;4.10;;;;;;;;;;4918697;29;20036;-73
2022/04/25 04:28:56;;;;;;;11.45;4.60;;;;;;;;;;4916692;29;20025;-72
2022/04/25 04:31:22;;;;;;;13.75;4.55;;;;;;;;;;4900447;29;20104;-73
2022/04/25 04:33:49;;;;;;;18.45;4.50;;;;;;;;;;4915954;29;20061;-72
2022/04/25 04:36:22;;;;;;;15.30;4.85;;;;;;;;;;4919838;29;20032;-75
2022/04/25 04:38:48;;;;;;;13.23;4.68;;;;;;;;;;4918513;29;20076;-74
2022/04/25 04:41:16;;;;;;;11.25;5.13;;;;;;;;;;4920713;29;20021;-73
2022/04/25 04:43:43;;;;;;;16.88;4.25;;;;;;;;;;4919161;29;20518;-71
2022/04/25 04:46:09;;;;;;;14.32;5.15;;;;;;;;;;4917860;29;20045;-73
2022/04/25 04:48:35;;;;;;;13.25;4.30;;;;;;;;;;4915078;29;20033;-71
2022/04/25 04:51:01;;;;;;;9.88;4.05;;;;;;;;;;4914964;29;20040;-71
2022/04/25 04:53:28;;;;;;;14.68;4.68;;;;;;;;;;4917027;29;20068;-76
2022/04/25 04:55:54;;;;;;;12.55;4.65;;;;;;;;;;4917752;29;20052;-72
2022/04/25 04:58:20;;;;;;;13.07;4.45;;;;;;;;;;4917544;29;20033;-72
2022/04/25 05:00:47;;;;;;;17.42;4.90;;;;;;;;;;4917210;29;20025;-72
2022/04/25 05:03:15;;;;;;;17.63;5.60;;;;;;;;;;4917677;29;20034;-71
2022/04/25 05:05:41;;;;;;;10.32;4.05;;;;;;;;;;4919417;29;20037;-71
2022/04/25 05:08:07;;;;;;;13.43;4.70;;;;;;;;;;4919986;29;20029;-79
2022/04/25 05:10:33;;;;;;;10.80;4.53;;;;;;;;;;4909567;29;20037;-72
2022/04/25 05:12:59;;;;;;;14.30;4.78;;;;;;;;;;4904425;29;20020;-70
2022/04/25 05:15:26;;;;;;;12.32;5.22;;;;;;;;;;4903656;29;20151;-71
2022/04/25 05:17:55;;;;;;;11.15;4.47;;;;;;;;;;4911510;29;20029;-72
2022/04/25 05:20:22;;;;;;;11.45;3.95;;;;;;;;;;4917563;29;20096;-76
2022/04/25 05:22:49;;;;;;;12.60;3.78;;;;;;;;;;4917482;29;20023;-74
2022/04/25 05:25:18;;;;;;;11.43;4.13;;;;;;;;;;4907123;29;20040;-78
2022/04/25 05:27:45;;;;;;;12.23;4.43;;;;;;;;;;4898667;29;20020;-74
2022/04/25 05:30:12;;;;;;;10.88;4.55;;;;;;;;;;4910012;29;20040;-75
2022/04/25 05:35:47;;;;;;;12.35;4.13;;;;;;;;;;4906742;29;20107;-73
2022/04/25 05:38:13;;;;;;;10.48;4.00;;;;;;;;;;4903780;29;20133;-72
2022/04/25 05:40:40;;;;;;;7.72;3.80;;;;;;;;;;4899563;29;20021;-73
2022/04/25 05:43:07;;;;;;;6.65;3.90;;;;;;;;;;4900146;29;20035;-74
2022/04/25 05:45:33;;;;;;;9.48;4.40;;;;;;;;;;4900899;29;20088;-75
2022/04/25 05:47:59;;;;;;;10.63;3.65;;;;;;;;;;4898869;29;20475;-74
2022/04/25 05:53:16;;;;;;;9.65;4.05;;;;;;;;;;4909793;29;20032;-76
2022/04/25 05:56:24;;;;;;;24.55;5.10;;;;;;;;;;4911874;29;20064;-78
2022/04/25 05:58:50;;;;;;;10.85;3.58;;;;;;;;;;4847794;29;20022;-77
2022/04/25 06:01:21;;;;;;;42.17;5.90;;;;;;;;;;4874057;29;20081;-78
2022/04/25 06:06:59;;;;;;;11.57;3.85;;;;;;;;;;4843116;29;20436;-74
2022/04/25 06:09:26;;;;;;;7.68;3.00;;;;;;;;;;4827882;29;20049;-74
2022/04/25 06:11:55;;;;;;;9.60;2.95;;;;;;;;;;4830109;29;20041;-78
2022/04/25 06:14:23;;;;;;;6.85;2.60;;;;;;;;;;4811952;29;20067;-77
2022/04/25 06:17:18;;;;;;;6.80;3.05;;;;;;;;;;4815823;29;20063;-79
2022/04/25 06:22:38;;;;;;;4.85;2.40;;;;;;;;;;5695388;23;20048;-77
2022/04/25 06:25:38;;;;;;;8.02;2.75;;;;;;;;;;4883791;29;20034;-80
2022/04/25 06:28:25;;;;;;;6.07;2.60;;;;;;;;;;4877319;29;20038;-79
2022/04/25 06:31:06;;;;;;;6.50;2.70;;;;;;;;;;4881029;29;20059;-82
2022/04/25 06:33:36;;;;;;;8.35;2.63;;;;;;;;;;4804706;29;20045;-74
2022/04/25 06:36:02;;;;;;;11.18;3.13;;;;;;;;;;4869741;29;20041;-77
2022/04/25 06:38:30;;;;;;;9.02;2.97;;;;;;;;;;4879553;29;20061;-79
2022/04/25 06:41:01;;;;;;;7.38;3.53;;;;;;;;;;4884319;29;20025;-80
2022/04/25 06:43:46;;;;;;;8.10;3.20;;;;;;;;;;4877127;29;20052;-80
2022/04/25 06:46:38;;;;;;;5.35;2.97;;;;;;;;;;4791199;30;20489;-78
2022/04/25 06:49:24;;;;;;;7.22;2.88;;;;;;;;;;4784400;29;20043;-80
2022/04/25 06:51:59;;;;;;;9.70;2.70;;;;;;;;;;4791555;29;20190;-80
2022/04/25 06:54:32;;;;;;;6.97;3.17;;;;;;;;;;4786547;30;20143;-80
2022/04/25 06:56:58;;;;;;;14.65;8.90;;;;;;;;;;4820736;29;20057;-78
2022/04/25 06:59:25;;;;;;;9.10;3.83;;;;;;;;;;4831953;29;20034;-73
2022/04/25 07:01:51;;;;;;;26.08;18.15;;;;;;;;;;4830425;29;20075;-73
2022/04/25 07:04:18;;;;;;;60.42;43.40;;;;;;;;;;4832066;29;20584;-73
2022/04/25 07:06:55;;;;;;;13.15;6.90;;;;;;;;;;4817195;29;20505;-77
2022/04/25 07:12:35;;;;;;;8.90;3.85;;;;;;;;;;4787627;30;20043;-78
2022/04/25 07:15:03;;;;;;;13.32;7.35;;;;;;;;;;4784140;29;20136;-78
2022/04/25 07:17:32;;;;;;;14.88;7.22;;;;;;;;;;4791127;30;20046;-79
2022/04/25 07:20:16;;;;;;;9.60;5.28;;;;;;;;;;4781777;30;20044;-75
2022/04/25 07:30:58;;;;;;;6.40;2.60;;;;;;;;;;4855432;29;20436;-74
2022/04/25 07:33:26;;;;;;;22.17;3.65;;;;;;;;;;4850779;29;20405;-73
2022/04/25 07:35:53;;;;;;;7.30;2.72;;;;;;;;;;4842231;29;20077;-77
2022/04/25 07:38:20;;;;;;;7.57;2.60;;;;;;;;;;4841724;29;20112;-78
2022/04/25 07:40:46;;;;;;;6.03;2.53;;;;;;;;;;4843178;29;20030;-77
2022/04/25 07:43:12;;;;;;;9.85;2.85;;;;;;;;;;4843080;29;20052;-74
2022/04/25 07:45:39;;;;;;;6.78;2.58;;;;;;;;;;4843658;29;20043;-73
2022/04/25 07:48:05;;;;;;;6.97;2.80;;;;;;;;;;4842238;29;20494;-73
2022/04/25 07:50:32;;;;;;;11.25;2.90;;;;;;;;;;4894492;29;20020;-73
2022/04/25 07:52:58;;;;;;;6.25;2.45;;;;;;;;;;4900501;29;20065;-78
2022/04/25 07:55:24;;;;;;;8.55;2.58;;;;;;;;;;4898026;29;20029;-74
2022/04/25 07:57:50;;;;;;;9.35;2.50;;;;;;;;;;4898759;29;20140;-76
2022/04/25 08:00:16;;;;;;;12.27;3.03;;;;;;;;;;4900258;29;20033;-77
2022/04/25 08:02:42;;;;;;;9.57;2.60;;;;;;;;;;4902977;29;20506;-73
2022/04/25 08:05:08;;;;;;;12.73;3.10;;;;;;;;;;4902346;29;20037;-75
2022/04/25 08:07:34;;;;;;;10.27;2.90;;;;;;;;;;4903026;29;20029;-73
2022/04/25 08:10:00;;;;;;;8.48;3.35;;;;;;;;;;4901916;29;20020;-73
2022/04/25 08:18:13;;;;;;;9.70;3.72;;;;;;;;;;5893854;23;20024;-78
2022/04/25 08:20:40;;;;;;;7.63;3.97;;;;;;;;;;4896314;29;20563;-75
2022/04/25 08:23:10;;;;;;;7.32;4.95;;;;;;;;;;4902032;29;20040;-76
2022/04/25 08:33:23;;;;;;;14.50;3.45;;;;;;;;;;5500466;23;20088;-75
2022/04/25 08:35:49;;;;;;;9.13;2.45;;;;;;;;;;4905305;29;20143;-75
2022/04/25 08:38:15;;;;;;;13.10;2.67;;;;;;;;;;4902069;29;20059;-75
2022/04/25 08:40:42;;;;;;;18.38;5.50;;;;;;;;;;4901812;29;20048;-75
2022/04/25 08:43:09;;;;;;;14.63;3.90;;;;;;;;;;4894565;29;20037;-74
2022/04/25 08:45:35;;;;;;;7.28;3.00;;;;;;;;;;4904757;29;20115;-75
2022/04/25 08:48:03;;;;;;;14.18;2.92;;;;;;;;;;4901729;29;20031;-75
2022/04/25 08:50:30;;;;;;;13.98;3.00;;;;;;;;;;4900214;29;20486;-76
2022/04/25 08:52:56;;;;;;;11.52;4.75;;;;;;;;;;4898300;29;20395;-77
2022/04/25 08:55:36;;;;;;;10.82;3.67;;;;;;;;;;4897957;29;20494;-76
2022/04/25 08:58:03;;;;;;;9.43;3.00;;;;;;;;;;4899849;29;20048;-84
2022/04/25 09:00:47;;;;;;;8.77;2.30;;;;;;;;;;4897261;29;20024;-82
2022/04/25 09:03:24;;;;;;;5.45;2.45;;;;;;;;;;4900193;29;20123;-83
2022/04/25 09:05:50;;;;;;;13.38;3.28;;;;;;;;;;4896420;29;20248;-83
2022/04/25 09:08:47;;;;;;;6.15;2.28;;;;;;;;;;4886274;29;20392;-82
2022/04/25 09:13:59;;;;;;;8.43;2.10;;;;;;;;;;4910201;29;20498;-80
2022/04/25 09:16:57;;;;;;;6.13;2.30;;;;;;;;;;4892119;29;20080;-81
2022/04/25 09:19:54;;;;;;;5.43;2.03;;;;;;;;;;4882249;29;20089;-80
2022/04/25 09:22:58;;;;;;;7.90;2.25;;;;;;;;;;4875176;29;20632;-79
2022/04/25 09:25:30;;;;;;;5.00;2.13;;;;;;;;;;4862342;29;20029;-80
2022/04/25 09:28:12;;;;;;;5.57;2.10;;;;;;;;;;4877192;29;20504;-79
2022/04/25 09:31:03;;;;;;;6.10;2.35;;;;;;;;;;4873842;29;20033;-81
2022/04/25 09:33:32;;;;;;;14.07;5.18;;;;;;;;;;4872017;29;20570;-80
2022/04/25 09:36:17;;;;;;;11.38;4.10;;;;;;;;;;4874937;29;20647;-79
2022/04/25 09:38:44;;;;;;;16.38;6.90;;;;;;;;;;4860679;29;20052;-81
2022/04/25 09:41:14;;;;;;;13.35;6.18;;;;;;;;;;4876043;29;20037;-83
2022/04/25 09:43:42;;;;;;;5.45;2.78;;;;;;;;;;4877582;29;20051;-84
2022/04/25 09:46:09;;;;;;;8.18;3.05;;;;;;;;;;4862027;29;20021;-84
2022/04/25 09:48:36;;;;;;;12.35;4.40;;;;;;;;;;4861867;29;20029;-83
2022/04/25 09:53:54;;;;;;;4.88;2.22;;;;;;;;;;5040845;23;20190;-77
2022/04/25 09:56:43;;;;;;;4.13;2.38;;;;;;;;;;4907894;29;20267;-86
2022/04/25 10:20:14;;;;;;;10.52;2.80;;;;;;;;;;5204473;23;20056;-76
2022/04/25 10:23:24;;;;;;;5.15;2.50;;;;;;;;;;4930142;29;20095;-75
2022/04/25 10:26:12;;;;;;;10.68;2.53;;;;;;;;;;4862084;29;20115;-85
2022/04/25 10:28:43;;;;;;;4.22;2.20;;;;;;;;;;4858624;29;20045;-84
2022/04/25 10:31:14;;;;;;;8.80;2.40;;;;;;;;;;4865730;29;20049;-88
2022/04/25 10:33:58;;;;;;;3.15;2.00;;;;;;;;;;4865575;29;20034;-89
2022/04/25 10:36:48;;;;;;;5.47;1.98;;;;;;;;;;4845532;29;20046;-87
2022/04/25 10:39:44;;;;;;;4.40;1.95;;;;;;;;;;4840536;29;20121;-81
2022/04/25 10:44:56;;;;;;;9.50;2.53;;;;;;;;;;4840917;29;20102;-88
2022/04/25 10:47:24;;;;;;;2.40;1.90;;;;;;;;;;4839593;29;20050;-87
2022/04/25 10:49:53;;;;;;;3.75;1.60;;;;;;;;;;4835120;29;20038;-87
2022/04/25 10:58:51;;;;;;;4.45;1.52;;;;;;;;;;5248154;23;21437;-91
2022/04/25 11:01:31;;;;;;;3.55;1.67;;;;;;;;;;4904912;23;20052;-93
2022/04/25 11:04:05;;;;;;;3.00;1.50;;;;;;;;;;4897536;29;20029;-75
2022/04/25 11:06:31;;;;;;;2.88;1.35;;;;;;;;;;4898029;29;20032;-86
2022/04/25 11:08:57;;;;;;;3.63;1.45;;;;;;;;;;4898285;29;20052;-81
2022/04/25 11:11:24;;;;;;;2.10;1.48;;;;;;;;;;4899986;29;20044;-81
2022/04/25 11:13:52;;;;;;;5.20;1.75;;;;;;;;;;4900133;29;20029;-85
2022/04/25 11:16:39;;;;;;;2.58;1.35;;;;;;;;;;4903847;29;20391;-84
2022/04/25 11:19:19;;;;;;;5.60;1.33;;;;;;;;;;4892554;29;20518;-74
2022/04/25 11:30:44;;;;;;;3.63;1.27;;;;;;;;;;5107594;23;20083;-82
2022/04/25 11:33:27;;;;;;;4.10;1.60;;;;;;;;;;4908838;29;20035;-81
2022/04/25 11:36:06;;;;;;;5.78;2.10;;;;;;;;;;4942237;29;20483;-77
2022/04/25 11:42:48;;;;;;;7.05;2.28;;;;;;;;;;4770715;30;20043;-83
2022/04/25 11:45:45;;;;;;;8.38;2.28;;;;;;;;;;4766761;30;20111;-85
2022/04/25 11:48:32;;;;;;;13.05;3.03;;;;;;;;;;4760495;30;20049;-80
2022/04/25 11:51:51;;;;;;;4.40;2.17;;;;;;;;;;4772066;30;20036;-81
2022/04/25 12:00:10;;;;;;;7.15;2.50;;;;;;;;;;4790290;26;20046;-84
2022/04/25 12:03:03;;;;;;;7.82;2.33;;;;;;;;;;4943786;29;20036;-74
2022/04/25 12:05:52;;;;;;;5.10;2.45;;;;;;;;;;4949074;29;20016;-74
2022/04/25 12:16:39;;;;;;;13.13;3.00;;;;;;;;;;4926930;29;20083;-79
2022/04/25 12:19:14;;;;;;;38.63;21.25;;;;;;;;;;4931526;29;20097;-83
2022/04/25 12:21:47;;;;;;;4.80;2.00;;;;;;;;;;4923939;29;20036;-86
2022/04/25 12:24:32;;;;;;;2.70;1.55;;;;;;;;;;4928517;29;20111;-85
2022/04/25 12:27:20;;;;;;;6.75;4.45;;;;;;;;;;4920645;29;20043;-86
2022/04/25 12:30:10;;;;;;;5.35;2.10;;;;;;;;;;4958778;29;20114;-84
2022/04/25 12:32:39;;;;;;;6.00;2.50;;;;;;;;;;4940002;29;20046;-72
2022/04/25 12:35:17;;;;;;;7.95;3.40;;;;;;;;;;4930358;29;20040;-75
2022/04/25 12:37:43;;;;;;;4.38;1.85;;;;;;;;;;4905091;29;20494;-83
2022/04/25 12:40:52;;;;;;;6.90;2.30;;;;;;;;;;4891008;29;20395;-86
2022/04/25 12:43:40;;;;;;;11.75;6.20;;;;;;;;;;4908777;29;20397;-85
2022/04/25 12:46:09;;;;;;;8.25;2.38;;;;;;;;;;4910543;29;20091;-86
2022/04/25 12:49:14;;;;;;;8.18;1.95;;;;;;;;;;4914183;29;20386;-86
2022/04/25 12:51:58;;;;;;;5.85;2.03;;;;;;;;;;4931054;29;20060;-89
2022/04/25 12:55:04;;;;;;;3.30;1.52;;;;;;;;;;4916314;29;20358;-84
2022/04/25 12:57:51;;;;;;;2.28;1.30;;;;;;;;;;4912611;29;20446;-83
2022/04/25 13:00:17;;;;;;;2.58;1.20;;;;;;;;;;4933107;29;20048;-88
2022/04/25 13:05:38;;;;;;;4.93;2.78;;;;;;;;;;4912408;29;20518;-87
2022/04/25 13:08:26;;;;;;;4.60;1.92;;;;;;;;;;4923615;29;20036;-83
2022/04/25 13:10:53;;;;;;;5.30;2.45;;;;;;;;;;4911393;29;20060;-82
2022/04/25 13:13:28;;;;;;;4.13;2.40;;;;;;;;;;4913075;29;20500;-89
2022/04/25 13:18:48;;;;;;;3.85;1.48;;;;;;;;;;5173634;23;20056;-77
2022/04/25 13:21:15;;;;;;;2.70;1.40;;;;;;;;;;4941435;29;20017;-75
2022/04/25 13:23:41;;;;;;;8.43;6.30;;;;;;;;;;4929323;29;20096;-75
2022/04/25 13:26:10;;;;;;;14.00;7.60;;;;;;;;;;4936074;29;20031;-75
2022/04/25 13:28:36;;;;;;;2.65;1.92;;;;;;;;;;4935885;29;20042;-74
2022/04/25 13:31:03;;;;;;;5.40;1.42;;;;;;;;;;4939312;29;20433;-75
2022/04/25 13:33:31;;;;;;;2.10;1.30;;;;;;;;;;4939205;29;20050;-75
2022/04/25 13:35:59;;;;;;;9.35;3.75;;;;;;;;;;4939786;29;20162;-75
2022/04/25 13:38:28;;;;;;;4.13;2.30;;;;;;;;;;4900278;29;20032;-75
2022/04/25 13:40:54;;;;;;;6.90;3.72;;;;;;;;;;4916271;29;20099;-75
2022/04/25 13:43:22;;;;;;;2.72;1.58;;;;;;;;;;4918154;29;20032;-75
2022/04/25 13:46:17;;;;;;;4.50;1.35;;;;;;;;;;4921755;29;20039;-77
2022/04/25 13:54:57;;;;;;;2.85;1.40;;;;;;;;;;4832818;29;20130;-78
2022/04/25 13:57:25;;;;;;;4.00;1.50;;;;;;;;;;4850966;29;20461;-78
2022/04/25 13:59:51;;;;;;;1.63;1.17;;;;;;;;;;4848851;29;20046;-78
2022/04/25 14:05:07;;;;;;;2.17;1.27;;;;;;;;;;4850301;29;20086;-79
2022/04/25 14:07:43;;;;;;;3.15;2.15;;;;;;;;;;4869402;29;20022;-80
2022/04/25 14:10:54;;;;;;;1.85;1.40;;;;;;;;;;4814334;29;20041;-79
2022/04/25 14:16:24;;;;;;;2.47;1.30;;;;;;;;;;4936159;23;20411;-85
2022/04/25 14:18:50;;;;;;;2.72;1.60;;;;;;;;;;4910085;29;20028;-76
2022/04/25 14:21:16;;;;;;;2.25;1.48;;;;;;;;;;4921579;29;20024;-86
2022/04/25 14:26:27;;;;;;;2.25;1.67;;;;;;;;;;4915382;29;20052;-88
2022/04/25 14:28:54;;;;;;;3.95;2.35;;;;;;;;;;4919433;29;20039;-87
2022/04/25 14:31:48;;;;;;;1.65;1.55;;;;;;;;;;4922916;29;20032;-90
2022/04/25 14:34:15;;;;;;;5.90;1.95;;;;;;;;;;4913281;29;20055;-88
2022/04/25 14:36:41;;;;;;;4.97;2.10;;;;;;;;;;4898974;29;20078;-89
2022/04/25 14:39:07;;;;;;;4.70;2.80;;;;;;;;;;4895355;29;20036;-77
2022/04/25 14:41:33;;;;;;;4.05;1.90;;;;;;;;;;4895229;29;20079;-89
2022/04/25 14:44:11;;;;;;;4.45;1.80;;;;;;;;;;4893161;29;20119;-90
2022/04/25 14:46:37;;;;;;;3.83;1.85;;;;;;;;;;4896064;29;20068;-82
2022/04/25 14:49:04;;;;;;;4.07;1.50;;;;;;;;;;4895972;29;20172;-80
2022/04/25 14:54:20;;;;;;;3.15;1.48;;;;;;;;;;4895919;29;20031;-82
2022/04/25 14:56:47;;;;;;;2.38;1.40;;;;;;;;;;4895971;29;20044;-80
2022/04/25 14:59:15;;;;;;;3.92;1.90;;;;;;;;;;4896309;29;20163;-86
2022/04/25 15:13:23;;;;;;;2.72;1.17;;;;;;;;;;5841246;23;20557;-89
2022/04/25 15:15:51;;;;;;;3.85;1.58;;;;;;;;;;4929418;29;20043;-87
2022/04/25 15:18:17;;;;;;;3.88;2.42;;;;;;;;;;4900755;29;20032;-74
2022/04/25 15:20:47;;;;;;;9.82;3.92;;;;;;;;;;4914792;29;20087;-74
2022/04/25 15:23:13;;;;;;;3.00;2.20;;;;;;;;;;4918065;29;20052;-74
2022/04/25 15:25:39;;;;;;;4.53;2.30;;;;;;;;;;4900771;29;20029;-74
2022/04/25 15:28:07;;;;;;;4.68;3.47;;;;;;;;;;4900944;29;20024;-74
2022/04/25 15:30:33;;;;;;;4.40;1.85;;;;;;;;;;4898776;29;20429;-74
2022/04/25 15:33:01;;;;;;;7.80;3.88;;;;;;;;;;4912283;29;20048;-74
2022/04/25 15:35:28;;;;;;;3.60;2.20;;;;;;;;;;4918762;29;20036;-73
2022/04/25 15:37:54;;;;;;;7.25;1.90;;;;;;;;;;4899416;29;20135;-85
2022/04/25 15:40:22;;;;;;;3.35;1.80;;;;;;;;;;4915146;29;20035;-81
2022/04/25 15:42:48;;;;;;;4.53;1.88;;;;;;;;;;4915817;29;20036;-74
2022/04/25 15:45:14;;;;;;;7.72;2.40;;;;;;;;;;4918397;29;20107;-75
2022/04/25 15:47:41;;;;;;;3.30;2.00;;;;;;;;;;4918455;29;20024;-75
2022/04/25 15:50:08;;;;;;;4.90;2.00;;;;;;;;;;4901760;29;20454;-74
2022/04/25 15:52:35;;;;;;;3.88;1.75;;;;;;;;;;4918261;29;20035;-74
2022/04/25 15:57:52;;;;;;;3.25;1.67;;;;;;;;;;4918050;29;20512;-75
2022/04/25 16:00:24;;;;;;;3.25;1.60;;;;;;;;;;4918435;29;20024;-75
2022/04/25 16:02:51;;;;;;;2.63;2.00;;;;;;;;;;4918405;29;20024;-74
2022/04/25 16:05:17;;;;;;;12.23;2.38;;;;;;;;;;4918275;29;20594;-75
2022/04/25 16:07:43;;;;;;;5.55;3.30;;;;;;;;;;4918315;29;20024;-74
2022/04/25 16:10:10;;;;;;;16.10;11.52;;;;;;;;;;4917685;29;20107;-74
2022/04/25 16:12:36;;;;;;;9.38;7.07;;;;;;;;;;4901053;29;20052;-74
2022/04/25 16:15:04;;;;;;;7.30;2.88;;;;;;;;;;4917538;29;20131;-75
2022/04/25 16:17:30;;;;;;;3.92;2.47;;;;;;;;;;4918095;29;20044;-75
2022/04/25 16:19:56;;;;;;;5.25;3.10;;;;;;;;;;4917658;29;20076;-74
2022/04/25 16:22:22;;;;;;;6.00;2.10;;;;;;;;;;4918000;29;20114;-75
2022/04/25 16:24:49;;;;;;;3.95;2.40;;;;;;;;;;4917917;29;20020;-76
2022/04/25 16:27:15;;;;;;;4.15;1.65;;;;;;;;;;4917831;29;20131;-76
2022/04/25 16:29:43;;;;;;;7.57;2.05;;;;;;;;;;4901088;29;20063;-75
2022/04/25 16:32:09;;;;;;;4.10;1.90;;;;;;;;;;4900551;29;20461;-75
2022/04/25 16:34:35;;;;;;;5.53;2.40;;;;;;;;;;4914721;29;20028;-75
2022/04/25 16:37:17;;;;;;;7.38;2.83;;;;;;;;;;4914694;29;20036;-89
2022/04/25 16:40:17;;;;;;;6.43;2.30;;;;;;;;;;4920830;29;20127;-86
2022/04/25 16:42:46;;;;;;;6.13;2.58;;;;;;;;;;4917162;29;20064;-80
2022/04/25 16:51:39;;;;;;;3.58;2.10;;;;;;;;;;4924587;29;20111;-83
2022/04/25 16:58:04;;;;;;;5.45;2.72;;;;;;;;;;4875399;29;20052;-84
2022/04/25 17:01:10;;;;;;;7.85;2.30;;;;;;;;;;4832398;29;20043;-82
2022/04/25 17:03:55;;;;;;;6.13;2.30;;;;;;;;;;4828529;29;20035;-82
2022/04/25 17:07:09;;;;;;;4.55;2.30;;;;;;;;;;4828359;29;20037;-83
2022/04/25 17:10:32;;;;;;;5.00;2.40;;;;;;;;;;4762250;30;20009;-85
2022/04/25 17:23:21;;;;;;;5.75;2.70;;;;;;;;;;4776792;30;20063;-77
2022/04/25 17:26:00;;;;;;;9.88;3.92;;;;;;;;;;4773773;30;20516;-81
2022/04/25 17:28:32;;;;;;;9.40;4.07;;;;;;;;;;4755854;30;20139;-76
